Latest Weather Observations for Coles Point

IDS60801

Issued at 2:01 pm CDT Wednesday 22 February 2017 (issued every 30 minutes, with the page automatically refreshed every 10 minutes)

About weather observations | Map of weather stations | Latest weather observations for SA | Other Formats
Station Details ID: 018191 Name: COLES POINT Lat: -34.37 Lon: 135.37 Height: 28.0 m
Data from the previous 72 hours. | See also: Recent months at Coles Point
Date/Time
CDT
Temp
°C
App
Temp
°C
Dew
Point
°C
Rel
Hum
%
Delta-T
°C
Wind Press
QNH
hPa
Press
MSL
hPa
Rain since
9am
mm
Dir  Spd
km/h
Gust
km/h
Spd
kts
Gust
kts
22/02:00pm 21.3 16.6 14.2 64 4.1 NW 32 39 17 21 1012.4 1012.3 0.0
22/01:30pm 22.0 17.4 14.6 63 4.4 NW 32 39 17 21 1012.2 1012.1 0.0
22/01:00pm 21.9 17.4 13.8 60 4.7 NW 30 39 16 21 1012.0 1011.9 0.0
22/12:30pm 21.2 15.8 12.9 59 4.7 NW 33 43 18 23 1011.9 1011.8 0.0
22/12:00pm 20.7 15.3 12.9 61 4.4 NW 33 41 18 22 1011.9 1011.8 0.0
22/11:30am 21.3 16.6 13.2 60 4.6 NW 30 43 16 23 1011.7 1011.6 0.0
22/11:00am 20.3 15.4 12.5 61 4.4 NW 30 41 16 22 1011.9 1011.8 0.0
22/10:30am 19.9 14.8 11.9 60 4.5 NW 30 35 16 19 1011.6 1011.5 0.0
22/10:00am 19.1 15.4 11.4 61 4.2 NW 22 30 12 16 1011.2 1011.1 0.0
22/09:30am 17.1 12.0 10.7 66 3.4 NW 28 37 15 20 1011.0 1010.9 0.0
22/09:00am 18.5 14.7 11.1 62 4.0 WNW 22 32 12 17 1011.1 1011.0 0.0
22/08:30am 18.2 14.7 10.8 62 4.0 W 20 32 11 17 1010.9 1010.8 0.0
22/08:00am 17.9 14.6 11.0 64 3.7 W 19 33 10 18 1010.4 1010.3 0.0
22/07:30am 18.1 14.7 12.5 70 3.1 W 22 28 12 15 1009.5 1009.4 0.0
22/07:00am 18.3 14.7 13.0 71 3.0 WSW 24 33 13 18 1008.6 1008.5 0.0
22/06:30am 18.3 15.5 14.4 78 2.3 WSW 22 32 12 17 1007.5 1007.4 0.0
22/06:00am 19.2 16.2 14.7 75 2.6 WSW 24 37 13 20 1006.4 1006.3 0.0
22/05:30am 21.1 17.7 11.2 53 5.5 NNW 20 26 11 14 1005.6 1005.5 0.0
22/05:00am 23.1 16.5 7.6 37 8.1 NNW 32 52 17 28 1005.1 1005.0 0.0
22/04:56am 23.0 15.9 7.9 38 7.9 NNW 35 52 19 28 1004.6 1004.5 0.0
22/04:53am 26.1 17.8 4.0 24 11.0 N 37 52 20 28 1005.2 1005.1 0.0
22/04:52am 26.2 17.8 1.5 20 11.8 N 35 52 19 28 1004.4 1004.3 0.0
22/04:30am 26.4 18.4 1.7 20 11.9 NNE 33 48 18 26 1002.4 1002.3 0.0
22/04:00am 25.8 18.6 3.1 23 11.1 NNE 30 39 16 21 1002.4 1002.3 0.0
22/03:30am 24.8 18.5 3.5 25 10.5 NNE 26 33 14 18 1002.9 1002.8 0.0
22/03:00am 23.8 18.3 4.2 28 9.7 NNE 22 28 12 15 1003.5 1003.4 0.0
22/02:30am 23.5 18.6 4.9 30 9.3 NNE 20 30 11 16 1004.1 1004.0 0.0
22/02:00am 23.4 18.6 4.9 30 9.2 NNE 19 24 10 13 1004.5 1004.4 0.0
22/01:30am 24.3 19.3 4.6 28 9.9 NNE 20 24 11 13 1005.4 1005.3 0.0
22/01:00am 24.4 19.7 5.2 29 9.7 NE 19 22 10 12 1006.1 1006.0 0.0
22/12:30am 23.3 19.5 5.7 32 8.9 NNE 15 17 8 9 1006.7 1006.6 0.0
22/12:00am 23.1 19.0 6.4 34 8.6 NNE 17 17 9 9 1007.1 1007.0 0.0
 
Date/Time
CDT
Temp
°C
App
Temp
°C
Dew
Point
°C
Rel
Hum
%
Delta-T
°C
Wind Press
QNH
hPa
Press
MSL
hPa
Rain since
9am
mm
Dir  Spd
km/h
Gust
km/h
Spd
kts
Gust
kts
21/11:30pm 22.6 19.2 7.6 38 7.8 NNE 15 20 8 11 1007.6 1007.5 0.0
21/11:00pm 22.1 19.1 9.3 44 6.9 NNE 15 17 8 9 1007.7 1007.6 0.0
21/10:30pm 22.7 19.8 9.8 44 7.0 NNE 15 17 8 9 1008.1 1008.0 0.0
21/10:00pm 23.7 20.3 9.3 40 7.8 NNE 17 19 9 10 1008.1 1008.0 0.0
21/09:30pm 24.3 20.9 9.1 38 8.2 NE 17 22 9 12 1008.1 1008.0 0.0
21/09:00pm 24.3 21.7 9.5 39 8.1 ENE 13 15 7 8 1008.5 1008.4 0.0
21/08:30pm 23.6 22.8 9.6 41 7.6 WSW 4 15 2 8 1008.4 1008.3 0.0
21/08:00pm 24.9 24.3 10.4 40 8.1 WSW 4 7 2 4 1008.3 1008.2 0.0
21/07:30pm 27.9 26.4 6.6 26 11.3 S 4 6 2 3 1008.3 1008.2 0.0
21/07:00pm 28.0 26.8 10.2 33 10.0 SW 7 9 4 5 1008.8 1008.7 0.0
21/06:30pm 27.6 25.3 7.5 28 10.8 SW 9 13 5 7 1008.9 1008.8 0.0
21/06:00pm 28.7 25.8 4.9 22 12.3 SW 9 13 5 7 1008.9 1008.8 0.0
21/05:30pm 29.1 25.3 3.9 20 12.8 SW 13 17 7 9 1009.3 1009.2 0.0
21/05:00pm 28.5 25.1 6.0 24 11.8 SW 13 15 7 8 1009.7 1009.6 0.0
21/04:30pm 29.1 26.1 7.7 26 11.6 WSW 13 17 7 9 1010.2 1010.1 0.0
21/04:00pm 28.6 26.4 9.3 30 10.7 WSW 11 15 6 8 1010.6 1010.5 0.0
21/03:30pm 28.8 25.3 7.4 26 11.5 WSW 15 19 8 10 1011.2 1011.1 0.0
21/03:00pm 29.7 26.7 7.6 25 12.0 W 13 17 7 9 1011.8 1011.7 0.0
21/02:30pm 29.1 24.8 7.1 25 11.8 WNW 19 22 10 12 1012.4 1012.3 0.0
21/02:00pm 28.7 25.0 7.9 27 11.3 NW 17 20 9 11 1012.7 1012.6 0.0
21/01:30pm 28.4 25.1 8.1 28 11.0 NW 15 19 8 10 1013.1 1013.0 0.0
21/01:00pm 28.4 25.5 9.6 31 10.5 NW 15 20 8 11 1013.7 1013.6 0.0
21/12:30pm 28.0 24.8 9.8 32 10.2 NW 17 22 9 12 1014.0 1013.9 0.0
21/12:00pm 28.5 24.2 7.7 27 11.2 N 20 32 11 17 1014.6 1014.5 0.0
21/11:30am 26.9 22.8 8.8 32 9.9 NE 20 30 11 16 1015.1 1015.0 0.0
21/11:00am 25.6 21.3 9.4 36 8.9 NNE 22 28 12 15 1015.5 1015.4 0.0
21/10:30am 23.9 18.9 9.5 40 7.8 NE 26 33 14 18 1015.9 1015.8 0.0
21/10:00am 22.5 17.9 10.9 48 6.4 NE 26 32 14 17 1016.2 1016.1 0.0
21/09:30am 20.3 17.0 12.8 62 4.2 NE 22 30 12 16 1016.3 1016.2 0.0
21/09:00am 18.1 14.8 12.8 71 3.0 NNE 22 28 12 15 1016.4 1016.3 0.0
21/08:30am 17.0 13.6 12.5 75 2.5 NNE 22 28 12 15 1016.5 1016.4 0.0
21/08:00am 15.7 12.8 12.3 80 1.9 NNE 19 24 10 13 1016.2 1016.1 0.0
21/07:30am 14.5 11.7 11.5 82 1.6 NNE 17 20 9 11 1016.0 1015.9 0.0
21/07:00am 14.4 11.2 11.4 82 1.6 NNE 19 24 10 13 1015.9 1015.8 0.0
21/06:30am 14.2 10.9 11.0 81 1.7 NNE 19 22 10 12 1015.7 1015.6 0.0
21/06:00am 14.4 11.1 11.0 80 1.8 NE 19 22 10 12 1015.6 1015.5 0.0
21/05:30am 15.0 11.8 11.2 78 2.0 NE 19 24 10 13 1015.3 1015.2 0.0
21/05:00am 15.1 12.3 11.3 78 2.0 NE 17 20 9 11 1015.5 1015.4 0.0
21/04:30am 14.9 12.1 11.3 79 1.9 NE 17 20 9 11 1015.8 1015.7 0.0
21/04:00am 14.9 12.8 11.3 79 1.9 NE 13 17 7 9 1015.9 1015.8 0.0
21/03:30am 15.0 13.4 11.6 80 1.8 NE 11 15 6 8 1016.1 1016.0 0.0
21/03:00am 14.7 12.6 11.1 79 1.9 NE 13 15 7 8 1016.3 1016.2 0.0
21/02:30am 15.0 12.9 11.0 77 2.1 NE 13 17 7 9 1017.0 1016.9 0.0
21/02:00am 15.4 12.9 11.2 76 2.2 NE 15 19 8 10 1017.1 1017.0 0.0
21/01:30am 15.2 13.1 11.0 76 2.2 NE 13 17 7 9 1017.3 1017.2 0.0
21/01:00am 14.9 13.5 10.9 77 2.1 ENE 9 13 5 7 1017.4 1017.3 0.0
21/12:30am 15.3 13.5 10.9 75 2.3 E 11 15 6 8 1017.4 1017.3 0.0
21/12:00am 15.6 13.0 10.6 72 2.6 E 15 20 8 11 1017.7 1017.6 0.0
 
Date/Time
CDT
Temp
°C
App
Temp
°C
Dew
Point
°C
Rel
Hum
%
Delta-T
°C
Wind Press
QNH
hPa
Press
MSL
hPa
Rain since
9am
mm
Dir  Spd
km/h
Gust
km/h
Spd
kts
Gust
kts
20/11:30pm 15.6 13.3 10.6 72 2.6 ESE 13 19 7 10 1018.1 1018.0 0.0
20/11:00pm 15.2 12.8 10.0 71 2.7 E 13 17 7 9 1018.6 1018.5 0.0
20/10:30pm 14.4 13.1 9.2 71 2.7 E 6 9 3 5 1018.7 1018.6 0.0
20/10:00pm 15.1 13.8 9.2 68 3.0 E 6 9 3 5 1018.7 1018.6 0.0
20/09:30pm 16.3 13.9 9.9 66 3.3 ESE 13 19 7 10 1018.5 1018.4 0.0
20/09:00pm 16.0 14.6 9.4 65 3.4 ESE 7 9 4 5 1018.4 1018.3 0.0
20/08:30pm 17.6 15.5 9.8 60 4.1 SE 11 17 6 9 1017.8 1017.7 0.0
20/08:00pm 18.8 16.0 10.1 57 4.6 ESE 15 22 8 12 1017.3 1017.2 0.0
20/07:30pm 18.4 14.5 10.8 61 4.1 S 22 30 12 16 1017.1 1017.0 0.0
20/07:00pm 19.1 14.7 10.4 57 4.7 SSW 24 30 13 16 1017.2 1017.1 0.0
20/06:30pm 19.4 15.3 10.1 55 5.0 SSW 22 32 12 17 1017.1 1017.0 0.0
20/06:00pm 19.8 15.2 11.0 57 4.8 SSW 26 33 14 18 1017.2 1017.1 0.0
20/05:30pm 20.1 15.5 11.1 56 4.9 SSW 26 33 14 18 1017.0 1016.9 0.0
20/05:00pm 20.2 15.2 9.7 51 5.6 SSW 26 33 14 18 1016.9 1016.8 0.0
20/04:30pm 20.9 16.3 9.8 49 6.0 SW 24 30 13 16 1017.2 1017.1 0.0
20/04:00pm 21.1 17.4 10.0 49 6.0 SSW 20 28 11 15 1017.2 1017.1 0.0
20/03:30pm 21.2 17.2 10.4 50 5.9 SW 22 26 12 14 1017.4 1017.3 0.0
20/03:00pm 20.5 17.0 10.3 52 5.5 SW 19 28 10 15 1017.7 1017.6 0.0
20/02:30pm 20.4 17.0 10.5 53 5.4 SW 19 22 10 12 1018.0 1017.9 0.0
20/02:00pm 20.6 17.4 9.8 50 5.8 WSW 17 20 9 11 1018.2 1018.2 0.0
20/01:30pm 20.2 16.8 9.2 49 5.8 SW 17 20 9 11 1018.5 1018.4 0.0
20/01:00pm 20.2 16.7 8.8 48 6.0 SW 17 22 9 12 1018.7 1018.6 0.0
20/12:30pm 20.0 17.2 9.9 52 5.4 SW 15 19 8 10 1018.9 1018.8 0.0
20/12:00pm 19.5 16.2 8.2 48 5.8 SW 15 19 8 10 1019.2 1019.1 0.0
20/11:30am 18.1 15.9 9.5 57 4.5 SW 11 15 6 8 1019.4 1019.3 0.0
20/11:00am 18.6 17.3 11.4 63 3.9 WSW 9 13 5 7 1019.6 1019.5 0.0
20/10:30am 17.8 16.3 9.2 57 4.5 WSW 7 9 4 5 1019.6 1019.5 0.0
20/10:00am 17.4 16.2 9.6 60 4.1 SW 6 7 3 4 1019.7 1019.6 0.0
20/09:30am 17.0 15.8 9.7 62 3.8 WNW 6 7 3 4 1019.7 1019.6 0.0
20/09:00am 16.8 15.8 10.2 65 3.5 WNW 6 9 3 5 1019.6 1019.5 0.0
20/08:30am 16.3 15.9 11.2 72 2.7 NNW 4 6 2 3 1019.4 1019.3 0.0
20/08:00am 15.5 15.7 10.5 72 2.6 CALM 0 0 0 0 1019.1 1019.0 0.0
20/07:30am 15.0 15.1 10.2 73 2.5 CALM 0 0 0 0 1018.9 1018.8 0.0
20/07:00am 15.0 15.1 10.2 73 2.5 CALM 0 0 0 0 1018.4 1018.3 0.0
20/06:30am 15.0 15.1 10.0 72 2.6 CALM 0 0 0 0 1018.2 1018.2 0.0
20/06:00am 15.4 15.1 10.2 71 2.7 SSE 2 4 1 2 1017.9 1017.8 0.0
20/05:30am 15.4 15.2 10.6 73 2.5 SSW 2 2 1 1 1017.8 1017.7 0.0
20/05:00am 15.3 14.4 10.5 73 2.5 SSW 6 7 3 4 1017.8 1017.7 0.0
20/04:30am 14.6 14.2 9.6 72 2.6 SSE 2 6 1 3 1017.7 1017.6 0.0
20/04:00am 13.9 13.6 8.5 70 2.7 CALM 0 0 0 0 1017.7 1017.6 0.0
20/03:30am 14.2 12.6 7.9 66 3.1 SE 6 7 3 4 1017.8 1017.7 0.0
20/03:00am 14.6 12.8 8.1 65 3.2 SSE 7 9 4 5 1017.8 1017.7 0.0
20/02:30am 14.8 13.1 8.3 65 3.3 S 7 7 4 4 1017.9 1017.8 0.0
20/02:00am 15.5 14.6 10.5 72 2.6 SW 6 9 3 5 1018.0 1017.9 0.0
20/01:30am 15.5 14.8 11.3 76 2.2 SW 6 7 3 4 1018.5 1018.4 0.0
20/01:00am 15.4 14.5 11.4 77 2.1 SW 7 9 4 5 1018.9 1018.8 0.0
20/12:30am 15.5 14.2 11.3 76 2.2 WSW 9 13 5 7 1019.0 1018.9 0.0
20/12:00am 15.8 14.0 10.8 72 2.7 SW 11 13 6 7 1019.1 1019.0 0.0
 
Date/Time
CDT
Temp
°C
App
Temp
°C
Dew
Point
°C
Rel
Hum
%
Delta-T
°C
Wind Press
QNH
hPa
Press
MSL
hPa
Rain since
9am
mm
Dir  Spd
km/h
Gust
km/h
Spd
kts
Gust
kts
19/11:30pm 16.0 14.2 11.0 72 2.7 SW 11 15 6 8 1019.4 1019.3 0.0
19/11:00pm 16.1 13.9 10.8 71 2.8 SW 13 17 7 9 1019.5 1019.4 0.0
19/10:30pm 16.1 13.7 10.2 68 3.1 SSW 13 17 7 9 1019.5 1019.4 0.0
19/10:00pm 16.2 13.9 10.3 68 3.1 SSW 13 19 7 10 1019.3 1019.2 0.0
19/09:30pm 16.2 13.2 10.5 69 3.0 SSW 17 22 9 12 1019.1 1019.0 0.0
19/09:00pm 15.9 14.9 11.1 73 2.6 SW 7 15 4 8 1019.0 1018.9 0.0
19/08:30pm 15.8 14.8 11.0 73 2.6 SW 7 9 4 5 1019.0 1018.9 0.0
19/08:00pm 15.7 13.6 11.1 74 2.5 SSW 13 20 7 11 1018.9 1018.8 0.0
19/07:30pm 16.1 12.7 10.4 69 3.0 SW 19 26 10 14 1018.8 1018.7 0.0
19/07:00pm 16.6 12.7 10.7 68 3.1 SW 22 28 12 15 1018.8 1018.7 0.0
19/06:30pm 17.4 14.1 10.8 65 3.5 SW 19 26 10 14 1018.6 1018.5 0.0
19/06:00pm 17.7 13.6 10.1 61 4.0 SW 22 28 12 15 1018.7 1018.6 0.0
19/05:30pm 18.1 14.4 10.2 60 4.2 SW 20 28 11 15 1018.7 1018.6 0.0
19/05:00pm 18.3 14.7 10.7 61 4.1 SW 20 28 11 15 1018.7 1018.6 0.0
19/04:30pm 18.6 14.8 9.9 57 4.6 SW 20 28 11 15 1018.6 1018.5 0.0
19/04:00pm 18.4 15.0 9.2 55 4.8 SW 17 22 9 12 1018.8 1018.7 0.0
19/03:30pm 19.1 15.4 9.3 53 5.2 SSW 19 24 10 13 1019.1 1019.0 0.0
19/03:00pm 18.9 14.6 9.4 54 5.0 SSW 22 28 12 15 1019.3 1019.2 0.0
19/02:30pm 19.3 15.2 10.0 55 5.0 SW 22 28 12 15 1019.5 1019.4 0.0

Other Formats:

Comma delimited format used in spreadsheet applications
http://www.bom.gov.au/fwo/IDS60801/IDS60801.94658.axf

JavaScript Object Notation format (JSON) in row-major order
http://www.bom.gov.au/fwo/IDS60801/IDS60801.94658.json